Time;durP1;ratioP1;P1;durP2;ratioP2;P2;SDS_P1;SDS_P2;PMS_P1;PMS_P2;Temp;Humidity;BMP_temperature;BMP_pressure;BME280_temperature;BME280_humidity;BME280_pressure;Samples;Min_cycle;Max_cycle;Signal;HPM_P1;HPM_P2
2023/07/17 00:01:16;;;;;;;1.23;0.80;;;;;;;22.51;76.46;100681.66;4972594;28;20034;-66
2023/07/17 00:03:42;;;;;;;0.98;0.73;;;;;;;22.45;75.97;100690.41;4964591;28;20039;-66
2023/07/17 00:06:07;;;;;;;1.23;0.75;;;;;;;22.42;76.73;100682.25;4966531;28;20051;-66
2023/07/17 00:08:32;;;;;;;2.10;1.00;;;;;;;22.38;77.49;100681.59;4972036;28;20054;-66
2023/07/17 00:10:58;;;;;;;0.70;0.60;;;;;;;22.39;77.09;100688.63;4970778;28;20050;-66
2023/07/17 00:13:24;;;;;;;1.85;1.05;;;;;;;22.45;76.69;100698.63;4958656;28;20050;-66
2023/07/17 00:15:49;;;;;;;2.10;1.00;;;;;;;22.43;75.96;100692.81;4954500;28;20054;-65
2023/07/17 00:18:15;;;;;;;0.70;0.57;;;;;;;22.41;75.46;100691.72;4972345;28;20386;-66
2023/07/17 00:20:40;;;;;;;0.95;0.77;;;;;;;22.52;74.88;100691.41;4972069;28;20117;-66
2023/07/17 00:23:06;;;;;;;1.58;1.00;;;;;;;22.50;74.36;100691.06;4967907;28;20469;-66
2023/07/17 00:25:32;;;;;;;1.88;0.98;;;;;;;22.34;74.91;100680.91;4970795;28;20038;-66
2023/07/17 00:27:57;;;;;;;2.05;0.80;;;;;;;22.36;74.60;100684.00;4942388;28;20675;-66
2023/07/17 00:30:23;;;;;;;1.38;0.60;;;;;;;22.42;74.02;100685.00;4950099;28;20067;-66
2023/07/17 00:32:48;;;;;;;2.42;0.60;;;;;;;22.39;73.28;100689.41;4938018;28;20039;-66
2023/07/17 00:35:14;;;;;;;1.55;0.85;;;;;;;22.23;73.96;100685.94;4967501;28;20391;-66
2023/07/17 00:37:40;;;;;;;1.45;0.90;;;;;;;22.24;73.50;100680.00;4951380;28;20086;-65
2023/07/17 00:40:08;;;;;;;1.00;0.60;;;;;;;22.19;74.29;100688.78;4960811;28;20613;-66
2023/07/17 00:42:35;;;;;;;1.55;0.70;;;;;;;22.17;74.94;100687.66;4951910;28;20039;-66
2023/07/17 00:45:01;;;;;;;1.40;0.80;;;;;;;22.20;74.77;100690.31;4965093;28;20039;-66
2023/07/17 00:47:29;;;;;;;2.50;0.90;;;;;;;22.09;74.70;100683.56;4963511;28;20031;-66
2023/07/17 00:49:55;;;;;;;1.92;0.90;;;;;;;21.99;75.54;100679.16;4967640;28;20408;-65
2023/07/17 00:52:21;;;;;;;1.38;0.90;;;;;;;21.77;75.33;100684.38;4964250;28;20026;-66
2023/07/17 00:54:47;;;;;;;2.97;0.88;;;;;;;21.82;75.46;100694.84;4964085;28;20529;-66
2023/07/17 00:57:15;;;;;;;0.80;0.80;;;;;;;21.94;75.05;100688.66;4957728;28;20113;-66
2023/07/17 00:59:41;;;;;;;1.05;0.73;;;;;;;21.84;75.85;100686.16;4967349;28;20022;-66
2023/07/17 01:02:08;;;;;;;0.82;0.57;;;;;;;21.71;76.64;100699.78;4965096;28;20035;-66
2023/07/17 01:04:35;;;;;;;1.05;0.70;;;;;;;21.72;77.25;100695.09;4963341;28;20100;-66
2023/07/17 01:07:01;;;;;;;1.05;0.70;;;;;;;21.77;76.49;100691.81;4957083;28;20045;-65
2023/07/17 01:09:28;;;;;;;0.80;0.52;;;;;;;21.90;75.98;100700.91;4965378;28;20026;-66
2023/07/17 01:11:54;;;;;;;0.93;0.60;;;;;;;21.80;76.15;100690.94;4968477;28;20547;-65
2023/07/17 01:14:23;;;;;;;1.23;0.60;;;;;;;21.72;76.74;100690.34;4959425;28;20034;-66
2023/07/17 01:16:49;;;;;;;1.00;0.60;;;;;;;21.69;76.91;100688.47;4968997;28;20026;-66
2023/07/17 01:19:15;;;;;;;1.33;1.00;;;;;;;21.85;76.05;100695.97;4959190;28;20492;-66
2023/07/17 01:21:55;;;;;;;0.93;0.57;;;;;;;21.76;76.03;100684.78;4967670;28;20035;-65
2023/07/17 01:24:21;;;;;;;4.20;0.75;;;;;;;21.74;75.66;100685.22;4966793;28;20589;-65
2023/07/17 01:26:47;;;;;;;1.00;0.90;;;;;;;21.70;76.25;100686.53;4962556;28;20206;-66
2023/07/17 01:29:13;;;;;;;1.05;0.70;;;;;;;21.50;76.48;100687.34;4971632;28;20632;-66
2023/07/17 01:31:40;;;;;;;1.17;0.57;;;;;;;21.68;75.68;100683.44;4953149;28;20039;-65
2023/07/17 01:34:06;;;;;;;1.23;0.80;;;;;;;21.56;75.82;100693.88;4973348;28;20030;-66
2023/07/17 01:36:32;;;;;;;1.15;0.60;;;;;;;21.47;76.61;100680.00;4962122;28;20045;-65
2023/07/17 01:38:57;;;;;;;1.08;0.70;;;;;;;21.56;75.79;100688.38;4967737;28;20043;-66
2023/07/17 01:41:23;;;;;;;1.85;0.65;;;;;;;21.55;76.53;100686.84;4958000;28;20046;-66
2023/07/17 01:43:49;;;;;;;2.53;0.88;;;;;;;21.50;75.87;100679.13;4969917;28;20776;-66
2023/07/17 01:46:14;;;;;;;4.50;0.90;;;;;;;21.24;76.76;100682.91;4972920;28;20038;-65
2023/07/17 01:48:42;;;;;;;1.40;0.77;;;;;;;21.31;77.17;100677.25;4978020;28;20031;-65
2023/07/17 01:51:07;;;;;;;0.90;0.57;;;;;;;21.34;76.60;100676.41;4970912;28;20096;-65
2023/07/17 01:53:33;;;;;;;0.65;0.50;;;;;;;21.32;76.44;100669.78;4978905;28;20038;-65
2023/07/17 01:56:00;;;;;;;1.90;0.80;;;;;;;21.54;75.65;100673.59;4968564;28;20043;-66
2023/07/17 01:58:26;;;;;;;2.03;1.10;;;;;;;21.48;74.40;100681.56;4958045;28;20564;-65
2023/07/17 02:00:54;;;;;;;2.13;1.00;;;;;;;21.47;74.75;100673.75;4960530;28;20089;-65
2023/07/17 02:03:19;;;;;;;2.63;1.00;;;;;;;21.38;75.22;100671.59;4961592;28;20023;-66
2023/07/17 02:05:44;;;;;;;1.33;0.82;;;;;;;21.39;75.28;100684.09;4970750;28;20128;-65
2023/07/17 02:08:10;;;;;;;1.05;0.63;;;;;;;21.32;76.43;100684.28;4955029;28;20130;-65
2023/07/17 02:10:40;;;;;;;1.27;0.75;;;;;;;21.17;75.92;100682.28;4964865;28;20034;-65
2023/07/17 02:13:06;;;;;;;0.80;0.60;;;;;;;21.21;76.92;100688.47;4965916;28;20034;-64
2023/07/17 02:15:31;;;;;;;1.48;0.60;;;;;;;21.19;76.12;100685.38;4979010;28;20038;-68
2023/07/17 02:17:57;;;;;;;2.67;0.70;;;;;;;21.27;75.49;100686.75;4952997;28;20039;-64
2023/07/17 02:20:23;;;;;;;1.48;0.50;;;;;;;21.06;75.76;100676.28;4977309;28;20128;-65
2023/07/17 02:22:49;;;;;;;2.47;1.00;;;;;;;21.15;75.68;100692.91;4953752;28;20031;-65
2023/07/17 02:25:14;;;;;;;0.95;0.60;;;;;;;21.12;76.47;100701.94;4961652;28;20082;-64
2023/07/17 02:27:40;;;;;;;1.90;0.82;;;;;;;21.20;75.50;100706.84;4974400;28;20157;-65
2023/07/17 02:30:07;;;;;;;1.77;0.95;;;;;;;21.36;74.93;100698.66;4976077;28;20038;-66
2023/07/17 02:32:33;;;;;;;1.48;0.60;;;;;;;21.36;74.76;100711.59;4973123;28;20156;-66
2023/07/17 02:34:58;;;;;;;0.98;0.68;;;;;;;21.31;75.11;100704.63;4963631;28;20122;-66
2023/07/17 02:37:24;;;;;;;2.40;0.85;;;;;;;21.26;75.81;100698.91;4954219;28;20107;-66
2023/07/17 02:39:50;;;;;;;1.25;0.88;;;;;;;21.41;74.33;100703.63;4973582;28;20575;-65
2023/07/17 02:42:16;;;;;;;1.27;0.65;;;;;;;21.41;73.97;100709.13;4972930;28;20486;-66
2023/07/17 02:44:43;;;;;;;2.03;0.77;;;;;;;21.32;74.20;100708.94;4944703;28;20116;-66
2023/07/17 02:47:08;;;;;;;0.43;0.43;;;;;;;21.24;75.18;100715.00;4971371;28;20042;-66
2023/07/17 02:49:33;;;;;;;2.42;1.02;;;;;;;21.26;75.74;100718.09;4975927;28;20080;-65
2023/07/17 02:51:59;;;;;;;1.58;0.68;;;;;;;21.22;76.17;100717.38;4966460;28;20129;-65
2023/07/17 02:54:24;;;;;;;1.92;0.75;;;;;;;21.22;75.70;100726.38;4970688;28;20026;-66
2023/07/17 02:56:50;;;;;;;5.00;0.77;;;;;;;21.19;75.76;100723.72;4962482;28;20128;-65
2023/07/17 02:59:15;;;;;;;2.08;0.70;;;;;;;21.11;76.04;100728.59;4957273;28;20105;-65
2023/07/17 03:01:41;;;;;;;0.57;0.50;;;;;;;21.03;75.77;100735.41;4963847;28;20053;-66
2023/07/17 03:04:06;;;;;;;1.13;0.60;;;;;;;21.03;75.62;100729.94;4943966;28;20545;-65
2023/07/17 03:06:31;;;;;;;1.50;0.80;;;;;;;21.07;74.89;100732.59;4975725;28;20031;-65
2023/07/17 03:08:57;;;;;;;2.92;1.08;;;;;;;20.97;74.42;100728.84;4970005;28;20074;-66
2023/07/17 03:11:23;;;;;;;1.30;0.80;;;;;;;20.95;74.72;100725.78;4961295;28;20042;-66
2023/07/17 03:13:48;;;;;;;2.38;1.42;;;;;;;20.93;75.24;100724.63;4965679;28;20043;-65
2023/07/17 03:16:14;;;;;;;1.17;0.60;;;;;;;20.95;74.52;100719.50;4945927;28;20027;-64
2023/07/17 03:18:40;;;;;;;0.73;0.50;;;;;;;20.80;75.17;100734.69;4954922;28;20089;-66
2023/07/17 03:21:05;;;;;;;1.08;0.80;;;;;;;20.92;74.71;100729.38;4963314;28;20038;-64
2023/07/17 03:23:31;;;;;;;0.82;0.70;;;;;;;20.98;74.66;100735.88;4953712;28;20672;-65
2023/07/17 03:25:57;;;;;;;0.68;0.60;;;;;;;20.92;74.78;100734.84;4958440;28;20053;-65
2023/07/17 03:28:22;;;;;;;1.08;0.73;;;;;;;21.01;73.87;100728.81;4973751;28;20482;-64
2023/07/17 03:30:48;;;;;;;1.92;0.82;;;;;;;21.03;74.12;100735.41;4956456;28;20053;-65
2023/07/17 03:33:13;;;;;;;2.60;0.80;;;;;;;20.99;74.06;100725.69;4974849;28;20401;-65
2023/07/17 03:35:38;;;;;;;1.15;0.50;;;;;;;21.05;73.16;100730.28;4959638;28;20037;-65
2023/07/17 03:38:04;;;;;;;2.22;0.85;;;;;;;21.09;73.05;100717.28;4964177;28;20026;-65
2023/07/17 03:40:30;;;;;;;1.15;0.80;;;;;;;20.92;72.97;100703.94;4964014;28;20027;-65
2023/07/17 03:42:55;;;;;;;1.25;0.75;;;;;;;20.86;74.15;100695.47;4960205;28;20031;-65
2023/07/17 03:45:21;;;;;;;1.00;0.50;;;;;;;20.93;74.00;100684.34;4960619;28;20054;-65
2023/07/17 03:47:50;;;;;;;1.20;0.70;;;;;;;20.93;74.37;100692.56;4956915;28;20035;-65
2023/07/17 03:50:16;;;;;;;0.90;0.75;;;;;;;20.94;75.27;100699.59;4971909;28;20682;-65
2023/07/17 03:52:41;;;;;;;0.88;0.80;;;;;;;20.92;75.30;100709.41;4973711;28;20029;-65
2023/07/17 03:55:07;;;;;;;1.85;0.68;;;;;;;20.96;75.82;100712.84;4975133;28;20042;-65
2023/07/17 03:57:33;;;;;;;1.10;0.95;;;;;;;20.90;76.99;100720.03;4961774;28;20028;-65
2023/07/17 03:59:58;;;;;;;1.35;0.80;;;;;;;20.75;76.13;100721.50;4960081;28;20034;-65
2023/07/17 04:02:38;;;;;;;3.65;1.00;;;;;;;20.86;76.81;100720.09;4963281;28;20096;-65
2023/07/17 04:05:03;;;;;;;3.10;1.10;;;;;;;20.91;75.56;100725.06;4960482;28;20544;-66
2023/07/17 04:07:29;;;;;;;1.15;0.88;;;;;;;20.87;76.90;100726.31;4955987;28;20074;-65
2023/07/17 04:09:55;;;;;;;0.98;0.50;;;;;;;20.93;76.75;100722.69;4948031;28;20039;-65
2023/07/17 04:12:20;;;;;;;2.25;0.90;;;;;;;21.08;76.75;100729.44;4968535;28;20027;-65
2023/07/17 04:14:46;;;;;;;1.67;0.73;;;;;;;21.08;76.40;100734.16;4955571;28;20024;-65
2023/07/17 04:17:11;;;;;;;1.08;0.90;;;;;;;21.12;76.16;100735.59;4967556;28;20114;-65
2023/07/17 04:19:37;;;;;;;1.45;0.98;;;;;;;21.01;75.76;100729.59;4960372;28;20102;-65
2023/07/17 04:22:02;;;;;;;1.05;0.70;;;;;;;20.98;75.73;100737.84;4947691;28;20086;-65
2023/07/17 04:24:29;;;;;;;1.40;0.82;;;;;;;20.96;75.30;100735.53;4944067;28;20027;-65
2023/07/17 04:26:55;;;;;;;1.17;0.63;;;;;;;21.00;75.96;100730.75;4963610;28;20038;-65
2023/07/17 04:29:24;;;;;;;1.75;0.93;;;;;;;21.07;74.71;100735.34;4973568;28;20114;-65
2023/07/17 04:31:55;;;;;;;1.75;0.60;;;;;;;21.07;74.77;100733.38;4962377;28;20074;-65
2023/07/17 04:34:21;;;;;;;1.08;0.60;;;;;;;21.04;74.97;100734.22;4959032;28;20134;-65
2023/07/17 04:36:48;;;;;;;2.17;0.80;;;;;;;21.08;75.02;100740.38;4956722;28;20037;-66
2023/07/17 04:39:14;;;;;;;1.13;0.88;;;;;;;21.14;74.52;100743.38;4960650;28;20030;-65
2023/07/17 04:41:40;;;;;;;1.65;0.75;;;;;;;21.09;74.74;100746.63;4949215;28;20393;-64
2023/07/17 04:44:06;;;;;;;1.27;0.70;;;;;;;21.05;74.66;100756.91;4950944;28;20027;-65
2023/07/17 04:46:31;;;;;;;4.30;0.90;;;;;;;21.08;74.71;100765.03;4957887;28;20078;-65
2023/07/17 04:48:57;;;;;;;1.85;0.80;;;;;;;21.19;74.41;100764.81;4962909;28;20030;-65
2023/07/17 04:51:23;;;;;;;1.30;0.63;;;;;;;21.32;73.69;100771.19;4960489;28;20081;-65
2023/07/17 04:53:49;;;;;;;1.48;0.60;;;;;;;21.22;74.43;100774.94;4983524;28;20038;-65
2023/07/17 04:56:14;;;;;;;1.33;0.60;;;;;;;21.27;74.46;100777.94;4971952;28;20087;-65
2023/07/17 04:58:40;;;;;;;0.82;0.68;;;;;;;21.38;73.81;100774.97;4957378;28;20085;-64
2023/07/17 05:01:06;;;;;;;1.45;0.60;;;;;;;21.47;73.11;100761.44;4968917;28;20058;-66
2023/07/17 05:03:33;;;;;;;2.92;0.80;;;;;;;21.40;72.65;100775.31;4954428;28;20089;-64
2023/07/17 05:05:59;;;;;;;1.48;0.63;;;;;;;21.39;72.94;100776.50;4968023;28;20046;-64
2023/07/17 05:08:26;;;;;;;1.85;0.98;;;;;;;21.45;72.69;100774.81;4953601;28;20030;-65
2023/07/17 05:10:59;;;;;;;1.08;1.00;;;;;;;21.26;73.07;100768.19;4958638;28;20078;-65
2023/07/17 05:13:30;;;;;;;1.60;0.82;;;;;;;21.26;73.61;100776.41;4954511;28;20126;-65
2023/07/17 05:15:58;;;;;;;1.20;0.70;;;;;;;21.30;74.19;100774.38;4934297;28;20035;-65
2023/07/17 05:18:24;;;;;;;1.42;0.88;;;;;;;21.36;74.19;100777.38;4954656;28;20126;-66
2023/07/17 05:20:51;;;;;;;1.15;0.77;;;;;;;21.35;74.13;100786.81;4952133;28;20031;-65
2023/07/17 05:23:17;;;;;;;0.90;0.50;;;;;;;21.36;73.78;100775.41;4948867;28;20039;-65
2023/07/17 05:25:55;;;;;;;1.25;0.75;;;;;;;21.36;74.07;100767.19;4944413;28;20027;-65
2023/07/17 05:28:22;;;;;;;2.78;0.68;;;;;;;21.28;74.42;100768.53;4981201;28;20030;-65
2023/07/17 05:30:52;;;;;;;1.42;0.93;;;;;;;21.20;74.38;100752.66;4964799;28;20481;-65
2023/07/17 05:33:18;;;;;;;0.82;0.70;;;;;;;21.28;74.27;100759.53;4956632;28;20082;-65
2023/07/17 05:35:43;;;;;;;1.77;0.88;;;;;;;21.36;74.24;100766.41;4933435;28;20049;-64
2023/07/17 05:38:09;;;;;;;1.20;0.80;;;;;;;21.32;73.95;100760.22;4956833;28;20216;-65
2023/07/17 05:40:36;;;;;;;1.75;0.85;;;;;;;21.41;74.29;100760.41;4957354;28;20389;-65
2023/07/17 05:43:02;;;;;;;5.05;0.55;;;;;;;21.48;73.76;100772.00;4970307;28;20103;-65
2023/07/17 05:45:27;;;;;;;2.60;0.80;;;;;;;21.50;74.12;100766.84;4955213;28;20034;-65
2023/07/17 05:47:53;;;;;;;0.63;0.50;;;;;;;21.55;74.46;100774.59;4965787;28;20042;-65
2023/07/17 05:50:19;;;;;;;1.08;0.80;;;;;;;21.58;74.20;100774.94;4980868;28;20026;-66
2023/07/17 05:52:46;;;;;;;1.33;0.70;;;;;;;21.66;73.45;100770.84;4963762;28;20041;-66
2023/07/17 05:55:11;;;;;;;2.70;0.60;;;;;;;21.73;73.05;100765.94;4981741;28;20801;-66
2023/07/17 05:57:37;;;;;;;0.93;0.68;;;;;;;21.68;73.88;100771.19;4976052;28;20146;-65
2023/07/17 06:00:03;;;;;;;1.13;0.85;;;;;;;21.74;73.98;100778.44;4963624;28;20039;-65
2023/07/17 06:02:38;;;;;;;1.20;0.80;;;;;;;21.70;73.48;100779.75;4964155;28;20038;-65
2023/07/17 06:05:04;;;;;;;5.85;0.73;;;;;;;21.96;73.54;100774.03;4970591;28;20409;-66
2023/07/17 06:07:31;;;;;;;2.78;1.02;;;;;;;22.16;71.24;100776.69;4958686;28;20050;-65
2023/07/17 06:09:56;;;;;;;1.38;0.77;;;;;;;22.09;71.76;100777.63;4975521;28;20117;-65
2023/07/17 06:12:22;;;;;;;0.77;0.73;;;;;;;22.04;73.05;100775.41;4958085;28;20129;-66
2023/07/17 06:14:47;;;;;;;1.73;0.70;;;;;;;22.16;72.35;100779.44;4976355;28;20042;-65
2023/07/17 06:17:13;;;;;;;1.17;0.80;;;;;;;22.18;72.63;100779.78;4978526;28;20042;-65
2023/07/17 06:19:38;;;;;;;1.50;0.77;;;;;;;22.28;72.04;100776.75;4951500;28;20038;-66
2023/07/17 06:22:04;;;;;;;1.20;0.70;;;;;;;22.55;71.71;100779.16;4967764;28;20038;-64
2023/07/17 06:24:29;;;;;;;1.58;0.73;;;;;;;22.70;70.27;100785.09;4972827;28;20027;-67
2023/07/17 06:26:55;;;;;;;1.02;0.75;;;;;;;22.78;70.64;100789.19;4978294;28;20382;-63
2023/07/17 06:29:20;;;;;;;1.05;0.70;;;;;;;22.78;69.22;100787.22;4977726;28;20042;-65
2023/07/17 06:31:46;;;;;;;1.75;0.68;;;;;;;22.87;69.56;100783.84;4973573;28;20050;-66
2023/07/17 06:34:11;;;;;;;1.30;0.65;;;;;;;23.11;69.36;100776.88;4973320;28;20752;-64
2023/07/17 06:36:37;;;;;;;2.88;0.90;;;;;;;23.47;68.65;100776.59;4976601;28;20696;-65
2023/07/17 06:39:03;;;;;;;1.50;0.75;;;;;;;23.71;67.86;100775.81;4979232;28;20046;-67
2023/07/17 06:41:28;;;;;;;1.23;0.93;;;;;;;23.93;66.77;100784.16;4969947;28;20046;-65
2023/07/17 06:43:55;;;;;;;1.52;0.80;;;;;;;24.27;65.88;100784.25;4959839;28;20394;-67
2023/07/17 06:46:20;;;;;;;1.38;0.90;;;;;;;24.47;65.02;100781.97;4981164;28;20121;-65
2023/07/17 06:48:46;;;;;;;0.80;0.70;;;;;;;24.63;62.50;100781.78;4981512;28;20054;-65
2023/07/17 06:51:11;;;;;;;1.13;0.70;;;;;;;24.74;60.94;100781.44;4980516;28;20069;-65
2023/07/17 06:53:37;;;;;;;2.42;1.00;;;;;;;24.89;60.32;100785.22;4976532;28;20035;-65
2023/07/17 06:56:03;;;;;;;1.00;0.52;;;;;;;24.92;60.08;100782.34;4971868;28;20070;-65
2023/07/17 06:58:29;;;;;;;2.92;0.73;;;;;;;25.13;59.94;100791.81;4959294;28;20039;-66
2023/07/17 07:00:58;;;;;;;4.00;1.25;;;;;;;25.31;59.58;100796.66;4969758;28;20039;-65
2023/07/17 07:03:26;;;;;;;3.47;0.77;;;;;;;25.30;58.14;100789.63;4964335;28;20125;-65
2023/07/17 07:06:00;;;;;;;0.50;0.50;;;;;;;25.17;58.89;100799.94;4962814;28;20042;-64
2023/07/17 07:08:27;;;;;;;1.13;0.60;;;;;;;25.25;58.64;100790.19;4973210;28;20702;-64
2023/07/17 07:10:54;;;;;;;1.42;0.90;;;;;;;25.31;58.59;100797.44;4976343;28;20109;-65
2023/07/17 07:13:20;;;;;;;1.33;0.65;;;;;;;25.46;58.14;100801.22;4971507;28;20055;-65
2023/07/17 07:15:47;;;;;;;3.35;1.02;;;;;;;25.64;57.78;100803.28;4964670;28;20031;-65
2023/07/17 07:18:32;;;;;;;1.77;0.73;;;;;;;25.80;57.47;100797.53;4974176;28;20027;-64
2023/07/17 07:20:58;;;;;;;0.93;0.63;;;;;;;25.81;56.12;100799.03;4937216;29;20051;-65
2023/07/17 07:23:23;;;;;;;1.42;0.60;;;;;;;25.72;55.51;100801.78;4928342;29;20050;-65
2023/07/17 07:25:49;;;;;;;1.42;0.50;;;;;;;25.54;55.84;100808.00;4923850;29;20470;-66
2023/07/17 07:28:14;;;;;;;3.63;0.73;;;;;;;25.58;55.92;100802.34;4929390;29;20066;-64
2023/07/17 07:30:40;;;;;;;2.78;0.60;;;;;;;25.61;55.68;100809.72;4931955;29;20043;-65
2023/07/17 07:33:05;;;;;;;4.95;1.00;;;;;;;25.64;56.07;100801.28;4924207;29;20499;-65
2023/07/17 07:35:31;;;;;;;1.95;0.60;;;;;;;25.81;55.99;100801.81;4925704;29;20491;-65
2023/07/17 07:37:57;;;;;;;2.70;0.90;;;;;;;25.94;55.73;100794.94;4916739;29;20121;-65
2023/07/17 07:40:23;;;;;;;1.08;0.68;;;;;;;26.16;55.57;100796.84;4927452;29;20051;-65
2023/07/17 07:42:48;;;;;;;2.15;0.82;;;;;;;26.06;54.15;100796.06;4933641;29;20107;-64
2023/07/17 07:45:15;;;;;;;1.55;0.70;;;;;;;26.10;55.50;100793.94;4922921;29;20527;-64
2023/07/17 07:47:40;;;;;;;1.58;0.70;;;;;;;26.32;55.75;100796.56;4930192;29;20051;-65
2023/07/17 07:50:07;;;;;;;0.88;0.70;;;;;;;26.41;55.34;100805.63;4930365;29;20550;-65
2023/07/17 07:52:33;;;;;;;2.47;1.00;;;;;;;26.50;54.81;100800.09;4934885;29;23141;-64
2023/07/17 07:54:58;;;;;;;4.25;0.88;;;;;;;26.38;53.87;100809.34;4934216;29;20078;-63
2023/07/17 07:57:24;;;;;;;2.10;0.73;;;;;;;26.39;53.43;100805.34;4944350;28;20038;-65
2023/07/17 07:59:49;;;;;;;2.47;0.80;;;;;;;26.53;53.70;100804.72;4959809;28;20405;-66
2023/07/17 08:02:16;;;;;;;4.03;0.60;;;;;;;26.58;53.50;100806.88;4971290;28;20534;-65
2023/07/17 08:04:41;;;;;;;1.70;0.70;;;;;;;26.54;53.87;100811.78;4976120;28;20070;-65
2023/07/17 08:07:07;;;;;;;1.92;0.70;;;;;;;26.57;52.55;100804.56;4967078;28;20039;-65
2023/07/17 08:09:33;;;;;;;3.25;0.77;;;;;;;26.49;51.75;100815.16;4980238;28;20488;-65
2023/07/17 08:11:59;;;;;;;1.00;0.50;;;;;;;26.48;52.52;100810.84;4971490;28;20031;-65
2023/07/17 08:14:24;;;;;;;0.57;0.57;;;;;;;26.57;52.93;100815.63;4967447;28;20039;-65
2023/07/17 08:16:50;;;;;;;1.20;0.80;;;;;;;26.63;52.89;100822.84;4954383;28;20031;-65
2023/07/17 08:19:19;;;;;;;1.45;0.70;;;;;;;26.67;52.06;100808.88;4951264;28;20110;-64
2023/07/17 08:21:45;;;;;;;3.53;0.70;;;;;;;26.82;51.76;100811.81;4949958;28;20038;-65
2023/07/17 08:24:10;;;;;;;0.90;0.73;;;;;;;26.97;52.43;100813.47;4963645;28;20398;-65
2023/07/17 08:26:57;;;;;;;3.22;0.50;;;;;;;27.06;51.83;100824.53;4972897;28;20148;-65
2023/07/17 08:29:22;;;;;;;1.42;0.60;;;;;;;27.32;50.24;100827.69;4918076;29;20056;-64
2023/07/17 08:31:48;;;;;;;1.58;0.80;;;;;;;27.25;50.46;100828.03;4900922;29;20052;-65
2023/07/17 08:34:13;;;;;;;1.90;0.60;;;;;;;27.16;49.62;100822.53;4917066;29;20700;-65
2023/07/17 08:36:39;;;;;;;0.60;0.60;;;;;;;27.15;49.70;100832.81;4883468;29;20119;-65
2023/07/17 08:39:05;;;;;;;2.10;0.68;;;;;;;26.96;49.24;100828.56;4911812;29;20051;-65
2023/07/17 08:41:30;;;;;;;1.90;0.75;;;;;;;26.80;51.03;100831.63;4912803;29;20043;-65
2023/07/17 08:43:58;;;;;;;1.05;0.70;;;;;;;27.03;50.11;100819.16;4906269;29;20048;-65
2023/07/17 08:46:24;;;;;;;0.70;0.40;;;;;;;27.17;49.81;100824.06;4907606;29;20052;-66
2023/07/17 08:48:52;;;;;;;2.05;0.77;;;;;;;27.27;48.91;100822.81;4910221;29;20047;-65
2023/07/17 08:51:21;;;;;;;1.67;0.80;;;;;;;27.41;48.37;100836.78;4917568;29;20506;-65
2023/07/17 08:53:48;;;;;;;1.55;0.73;;;;;;;27.32;46.86;100830.47;4903658;29;20055;-67
2023/07/17 08:56:14;;;;;;;0.90;0.70;;;;;;;27.57;47.42;100827.34;4923873;29;20096;-63
2023/07/17 08:58:40;;;;;;;0.98;0.50;;;;;;;27.63;46.41;100828.25;4882904;29;20373;-63
2023/07/17 09:01:07;;;;;;;2.88;0.63;;;;;;;27.79;46.89;100825.09;4906111;29;20056;-63
2023/07/17 09:03:34;;;;;;;1.15;0.52;;;;;;;28.16;45.13;100825.72;4906430;29;20047;-63
2023/07/17 09:06:03;;;;;;;1.42;0.88;;;;;;;28.30;45.60;100827.78;4944051;28;20529;-63
2023/07/17 09:08:28;;;;;;;0.40;0.30;;;;;;;28.54;44.71;100823.00;4957011;28;20030;-65
2023/07/17 09:11:04;;;;;;;1.40;0.50;;;;;;;28.81;45.22;100835.88;4944388;28;20043;-63
2023/07/17 09:13:41;;;;;;;1.20;0.40;;;;;;;29.14;43.25;100833.72;4952286;28;20176;-63
2023/07/17 09:16:18;;;;;;;0.93;0.60;;;;;;;29.22;43.96;100827.34;4970817;28;20042;-61
2023/07/17 09:18:44;;;;;;;2.90;0.75;;;;;;;29.35;43.22;100824.25;4969971;28;20023;-64
2023/07/17 09:23:42;;;;;;;0.38;0.28;;;;;;;29.63;42.66;100833.03;4949876;28;20129;-66
2023/07/17 09:26:08;;;;;;;0.82;0.50;;;;;;;29.76;42.15;100833.50;4952199;28;21673;-66
2023/07/17 09:28:39;;;;;;;1.17;0.40;;;;;;;29.72;42.41;100833.72;4955716;28;20033;-64
2023/07/17 09:31:05;;;;;;;;;;;;;;;29.78;40.66;100831.00;4966061;28;20045;-65
2023/07/17 09:33:37;;;;;;;0.63;0.40;;;;;;;29.63;40.43;100836.59;4960191;28;19914;-66
2023/07/17 09:36:03;;;;;;;0.95;0.57;;;;;;;29.54;41.25;100833.91;4949436;28;20035;-65
2023/07/17 09:38:32;;;;;;;0.57;0.50;;;;;;;29.62;41.04;100825.94;4952711;28;20023;-66
2023/07/17 09:40:57;;;;;;;0.65;0.45;;;;;;;29.91;40.03;100837.00;4952015;28;20046;-66
2023/07/17 09:43:32;;;;;;;0.45;0.30;;;;;;;30.05;39.65;100836.97;4959013;28;20043;-66
2023/07/17 09:45:59;;;;;;;1.13;0.32;;;;;;;30.21;38.96;100830.13;4962716;28;20042;-70
2023/07/17 09:48:26;;;;;;;0.75;0.40;;;;;;;29.95;38.70;100845.91;4957336;28;20093;-66
2023/07/17 09:50:52;;;;;;;2.13;0.32;;;;;;;29.63;39.04;100853.25;4958436;28;20450;-66
2023/07/17 09:53:20;;;;;;;0.50;0.25;;;;;;;29.50;38.44;100841.66;4950078;28;20027;-66
2023/07/17 09:55:50;;;;;;;0.88;0.25;;;;;;;29.65;38.52;100842.44;4952764;28;20122;-66
2023/07/17 09:58:17;;;;;;;0.60;0.47;;;;;;;29.80;39.33;100840.41;4961361;28;20039;-66
2023/07/17 10:00:43;;;;;;;0.80;0.22;;;;;;;29.91;38.09;100853.69;4954419;28;20030;-61
2023/07/17 10:03:10;;;;;;;1.70;0.47;;;;;;;29.71;38.74;100853.66;4947112;28;20046;-64
2023/07/17 10:05:57;;;;;;;1.77;0.45;;;;;;;29.53;38.64;100862.16;4951980;29;20097;-66
2023/07/17 10:08:23;;;;;;;0.68;0.30;;;;;;;29.34;39.14;100867.16;4871010;29;20490;-65
2023/07/17 10:10:48;;;;;;;3.33;0.40;;;;;;;29.49;38.99;100856.03;4879656;29;20127;-66
2023/07/17 10:13:14;;;;;;;0.80;0.40;;;;;;;29.48;39.63;100860.81;4876851;29;20049;-65
2023/07/17 10:15:40;;;;;;;1.35;0.52;;;;;;;29.42;40.05;100857.19;4873265;29;20049;-64
2023/07/17 10:18:11;;;;;;;5.43;2.35;;;;;;;29.35;39.61;100863.88;4885241;29;20055;-66
2023/07/17 10:20:37;;;;;;;;;;;;;;;29.22;39.93;100863.41;4878130;29;20162;-66
2023/07/17 10:23:03;;;;;;;1.08;0.80;;;;;;;29.21;40.46;100866.69;4878574;29;19995;-65
2023/07/17 10:25:29;;;;;;;0.70;0.40;;;;;;;29.41;40.21;100855.66;4873785;29;20181;-66
2023/07/17 10:28:00;;;;;;;0.70;0.40;;;;;;;29.72;40.20;100864.28;4870894;29;20521;-65
2023/07/17 10:30:35;;;;;;;1.23;0.50;;;;;;;29.97;38.85;100869.19;4878811;29;20546;-64
2023/07/17 10:33:13;;;;;;;0.57;0.20;;;;;;;29.91;38.08;100873.91;4872527;29;20084;-65
2023/07/17 10:35:57;;;;;;;1.38;0.47;;;;;;;29.70;39.87;100877.84;4874251;29;20036;-66
2023/07/17 10:38:27;;;;;;;1.33;0.70;;;;;;;29.69;39.36;100870.00;4871777;29;20056;-63
2023/07/17 10:41:10;;;;;;;0.60;0.50;;;;;;;29.83;38.96;100886.66;4869997;29;20040;-66
2023/07/17 10:43:36;;;;;;;0.65;0.20;;;;;;;29.98;38.35;100870.75;4868791;29;20053;-65
2023/07/17 10:46:08;;;;;;;2.08;0.32;;;;;;;30.18;38.84;100872.78;4926465;28;20043;-66
2023/07/17 10:48:37;;;;;;;1.63;0.60;;;;;;;30.30;38.12;100882.84;4944812;28;20027;-66
2023/07/17 10:51:02;;;;;;;0.30;0.30;;;;;;;30.25;37.93;100872.38;4955876;28;20031;-65
2023/07/17 10:53:28;;;;;;;0.68;0.35;;;;;;;30.08;38.03;100885.28;4951493;28;20095;-65
2023/07/17 10:55:54;;;;;;;0.47;0.38;;;;;;;29.88;38.43;100877.66;4953750;28;20408;-65
2023/07/17 10:58:20;;;;;;;1.42;0.50;;;;;;;29.87;38.60;100889.25;4955157;28;20035;-66
2023/07/17 11:00:47;;;;;;;1.55;0.47;;;;;;;30.08;38.03;100876.94;4953084;28;20046;-66
2023/07/17 11:03:14;;;;;;;0.80;0.50;;;;;;;30.24;37.89;100882.72;4928372;28;20035;-65
2023/07/17 11:05:41;;;;;;;2.55;0.40;;;;;;;30.22;37.60;100879.66;4952122;28;20042;-65
2023/07/17 11:08:07;;;;;;;0.77;0.50;;;;;;;30.05;37.61;100880.69;4944599;28;20027;-65
2023/07/17 11:10:34;;;;;;;1.23;0.45;;;;;;;29.58;38.63;100881.69;4948315;28;20039;-65
2023/07/17 11:13:02;;;;;;;1.50;0.50;;;;;;;29.19;39.35;100888.59;4958680;28;20376;-65
2023/07/17 11:15:31;;;;;;;0.98;0.30;;;;;;;29.44;38.80;100893.59;4957612;28;20027;-65
2023/07/17 11:17:58;;;;;;;2.20;0.77;;;;;;;29.78;37.99;100889.34;4951908;28;20035;-64
2023/07/17 11:20:24;;;;;;;2.53;0.70;;;;;;;29.93;37.44;100887.31;4945889;28;20039;-64
2023/07/17 11:22:49;;;;;;;3.40;0.80;;;;;;;30.08;37.80;100888.81;4955007;28;20031;-65
2023/07/17 11:25:15;;;;;;;2.38;0.50;;;;;;;30.29;38.14;100888.88;4956595;28;20027;-64
2023/07/17 11:27:41;;;;;;;0.90;0.52;;;;;;;30.14;37.63;100898.00;4952830;28;20541;-65